sensor_id;sensor_type;location;lat;lon;timestamp;temperature;humidity
25360;DHT22;13311;51.386;0.016;2023-08-24T00:04:05;23.90;84.60
25360;DHT22;13311;51.386;0.016;2023-08-24T00:09:06;23.80;84.50
25360;DHT22;13311;51.386;0.016;2023-08-24T00:14:07;23.70;84.20
25360;DHT22;13311;51.386;0.016;2023-08-24T00:19:08;23.60;84.70
25360;DHT22;13311;51.386;0.016;2023-08-24T00:24:08;23.50;84.80
25360;DHT22;13311;51.386;0.016;2023-08-24T00:29:09;23.40;84.80
25360;DHT22;13311;51.386;0.016;2023-08-24T00:34:10;23.30;85.10
25360;DHT22;13311;51.386;0.016;2023-08-24T00:39:10;23.30;85.20
25360;DHT22;13311;51.386;0.016;2023-08-24T00:44:12;23.10;85.40
25360;DHT22;13311;51.386;0.016;2023-08-24T00:49:12;23.00;86.00
25360;DHT22;13311;51.386;0.016;2023-08-24T00:54:14;22.80;86.50
25360;DHT22;13311;51.386;0.016;2023-08-24T00:59:15;22.80;86.70
25360;DHT22;13311;51.386;0.016;2023-08-24T01:04:17;22.80;86.90
25360;DHT22;13311;51.386;0.016;2023-08-24T01:09:19;22.70;86.90
25360;DHT22;13311;51.386;0.016;2023-08-24T01:19:58;22.70;87.30
25360;DHT22;13311;51.386;0.016;2023-08-24T01:25:07;22.70;87.50
25360;DHT22;13311;51.386;0.016;2023-08-24T01:30:12;22.60;86.90
25360;DHT22;13311;51.386;0.016;2023-08-24T01:35:13;22.60;86.90
25360;DHT22;13311;51.386;0.016;2023-08-24T01:40:25;22.50;87.30
25360;DHT22;13311;51.386;0.016;2023-08-24T01:45:31;22.40;87.50
25360;DHT22;13311;51.386;0.016;2023-08-24T01:50:33;22.30;87.40
25360;DHT22;13311;51.386;0.016;2023-08-24T01:55:34;22.10;87.70
25360;DHT22;13311;51.386;0.016;2023-08-24T02:00:35;21.90;88.50
25360;DHT22;13311;51.386;0.016;2023-08-24T02:05:36;21.80;89.00
25360;DHT22;13311;51.386;0.016;2023-08-24T02:10:37;21.60;89.20
25360;DHT22;13311;51.386;0.016;2023-08-24T02:15:38;21.50;89.10
25360;DHT22;13311;51.386;0.016;2023-08-24T02:20:41;21.40;89.40
25360;DHT22;13311;51.386;0.016;2023-08-24T02:25:42;21.40;89.50
25360;DHT22;13311;51.386;0.016;2023-08-24T02:30:44;21.30;89.60
25360;DHT22;13311;51.386;0.016;2023-08-24T02:35:47;21.30;90.00
25360;DHT22;13311;51.386;0.016;2023-08-24T02:40:48;21.30;90.00
25360;DHT22;13311;51.386;0.016;2023-08-24T02:45:48;21.40;90.10
25360;DHT22;13311;51.386;0.016;2023-08-24T02:50:49;21.30;90.10
25360;DHT22;13311;51.386;0.016;2023-08-24T02:55:50;21.30;90.20
25360;DHT22;13311;51.386;0.016;2023-08-24T03:00:50;21.30;90.10
25360;DHT22;13311;51.386;0.016;2023-08-24T03:10:59;21.40;90.10
25360;DHT22;13311;51.386;0.016;2023-08-24T03:16:04;21.50;90.00
25360;DHT22;13311;51.386;0.016;2023-08-24T03:21:05;21.50;90.00
25360;DHT22;13311;51.386;0.016;2023-08-24T03:26:06;21.60;90.00
25360;DHT22;13311;51.386;0.016;2023-08-24T03:31:07;21.60;89.90
25360;DHT22;13311;51.386;0.016;2023-08-24T03:36:08;21.80;90.00
25360;DHT22;13311;51.386;0.016;2023-08-24T03:41:09;21.80;90.00
25360;DHT22;13311;51.386;0.016;2023-08-24T03:46:09;21.80;89.80
25360;DHT22;13311;51.386;0.016;2023-08-24T03:51:10;21.80;89.80
25360;DHT22;13311;51.386;0.016;2023-08-24T03:56:11;21.80;90.00
25360;DHT22;13311;51.386;0.016;2023-08-24T04:01:12;21.70;90.10
25360;DHT22;13311;51.386;0.016;2023-08-24T04:06:12;21.70;90.20
25360;DHT22;13311;51.386;0.016;2023-08-24T04:11:13;21.70;90.30
25360;DHT22;13311;51.386;0.016;2023-08-24T04:16:14;21.70;90.30
25360;DHT22;13311;51.386;0.016;2023-08-24T04:21:14;21.80;90.30
25360;DHT22;13311;51.386;0.016;2023-08-24T04:26:15;21.80;90.30
25360;DHT22;13311;51.386;0.016;2023-08-24T04:31:16;21.80;90.30
25360;DHT22;13311;51.386;0.016;2023-08-24T04:36:17;21.80;90.40
25360;DHT22;13311;51.386;0.016;2023-08-24T04:41:17;21.80;90.40
25360;DHT22;13311;51.386;0.016;2023-08-24T04:46:18;21.90;90.40
25360;DHT22;13311;51.386;0.016;2023-08-24T04:51:19;22.00;90.30
25360;DHT22;13311;51.386;0.016;2023-08-24T04:56:20;22.00;90.30
25360;DHT22;13311;51.386;0.016;2023-08-24T05:01:20;22.10;90.50
25360;DHT22;13311;51.386;0.016;2023-08-24T05:06:21;22.10;90.50
25360;DHT22;13311;51.386;0.016;2023-08-24T05:11:23;22.20;90.40
25360;DHT22;13311;51.386;0.016;2023-08-24T05:16:26;22.10;90.70
25360;DHT22;13311;51.386;0.016;2023-08-24T05:21:28;22.00;91.10
25360;DHT22;13311;51.386;0.016;2023-08-24T05:26:29;22.10;91.70
25360;DHT22;13311;51.386;0.016;2023-08-24T05:31:30;22.20;92.50
25360;DHT22;13311;51.386;0.016;2023-08-24T05:36:31;22.20;92.90
25360;DHT22;13311;51.386;0.016;2023-08-24T05:41:32;22.20;93.20
25360;DHT22;13311;51.386;0.016;2023-08-24T05:46:33;22.20;93.50
25360;DHT22;13311;51.386;0.016;2023-08-24T05:51:33;22.20;93.50
25360;DHT22;13311;51.386;0.016;2023-08-24T05:56:34;22.10;93.90
25360;DHT22;13311;51.386;0.016;2023-08-24T06:01:35;22.00;94.20
25360;DHT22;13311;51.386;0.016;2023-08-24T06:06:38;22.00;94.10
25360;DHT22;13311;51.386;0.016;2023-08-24T06:11:39;22.00;94.40
25360;DHT22;13311;51.386;0.016;2023-08-24T06:16:41;21.90;94.60
25360;DHT22;13311;51.386;0.016;2023-08-24T06:21:41;21.80;94.40
25360;DHT22;13311;51.386;0.016;2023-08-24T06:26:42;21.80;94.00
25360;DHT22;13311;51.386;0.016;2023-08-24T06:31:43;21.80;94.40
25360;DHT22;13311;51.386;0.016;2023-08-24T06:36:43;21.80;94.60
25360;DHT22;13311;51.386;0.016;2023-08-24T06:41:44;21.80;94.80
25360;DHT22;13311;51.386;0.016;2023-08-24T06:46:45;21.70;94.90
25360;DHT22;13311;51.386;0.016;2023-08-24T06:51:46;21.70;95.30
25360;DHT22;13311;51.386;0.016;2023-08-24T06:56:47;21.60;94.70
25360;DHT22;13311;51.386;0.016;2023-08-24T07:01:48;21.60;94.50
25360;DHT22;13311;51.386;0.016;2023-08-24T07:06:48;21.70;95.00
25360;DHT22;13311;51.386;0.016;2023-08-24T07:11:49;21.80;95.00
25360;DHT22;13311;51.386;0.016;2023-08-24T07:16:50;21.90;95.20
25360;DHT22;13311;51.386;0.016;2023-08-24T07:21:50;21.70;95.10
25360;DHT22;13311;51.386;0.016;2023-08-24T07:26:52;21.60;95.40
25360;DHT22;13311;51.386;0.016;2023-08-24T07:31:53;21.70;95.70
25360;DHT22;13311;51.386;0.016;2023-08-24T07:36:54;21.70;96.20
25360;DHT22;13311;51.386;0.016;2023-08-24T07:41:54;21.80;96.40
25360;DHT22;13311;51.386;0.016;2023-08-24T07:46:55;21.80;96.10
25360;DHT22;13311;51.386;0.016;2023-08-24T07:51:56;21.80;96.00
25360;DHT22;13311;51.386;0.016;2023-08-24T07:56:58;21.80;96.70
25360;DHT22;13311;51.386;0.016;2023-08-24T08:01:59;21.80;96.40
25360;DHT22;13311;51.386;0.016;2023-08-24T08:07:00;21.80;97.00
25360;DHT22;13311;51.386;0.016;2023-08-24T08:12:00;21.90;96.80
25360;DHT22;13311;51.386;0.016;2023-08-24T08:17:01;21.80;96.50
25360;DHT22;13311;51.386;0.016;2023-08-24T08:22:02;21.70;96.30
25360;DHT22;13311;51.386;0.016;2023-08-24T08:27:03;21.70;96.90
25360;DHT22;13311;51.386;0.016;2023-08-24T08:32:04;21.80;97.50
25360;DHT22;13311;51.386;0.016;2023-08-24T08:37:06;21.70;96.90
25360;DHT22;13311;51.386;0.016;2023-08-24T08:42:11;21.90;97.20
25360;DHT22;13311;51.386;0.016;2023-08-24T08:47:14;22.10;97.60
25360;DHT22;13311;51.386;0.016;2023-08-24T08:52:15;22.30;97.10
25360;DHT22;13311;51.386;0.016;2023-08-24T08:57:16;22.20;96.20
25360;DHT22;13311;51.386;0.016;2023-08-24T09:02:19;22.20;97.10
25360;DHT22;13311;51.386;0.016;2023-08-24T09:07:21;22.30;96.20
25360;DHT22;13311;51.386;0.016;2023-08-24T09:12:22;22.40;96.30
25360;DHT22;13311;51.386;0.016;2023-08-24T09:17:22;22.60;96.90
25360;DHT22;13311;51.386;0.016;2023-08-24T09:22:23;22.90;96.60
25360;DHT22;13311;51.386;0.016;2023-08-24T09:27:24;23.10;96.60
25360;DHT22;13311;51.386;0.016;2023-08-24T09:32:27;23.20;96.60
25360;DHT22;13311;51.386;0.016;2023-08-24T09:37:32;23.20;96.50
25360;DHT22;13311;51.386;0.016;2023-08-24T09:42:41;23.30;96.30
25360;DHT22;13311;51.386;0.016;2023-08-24T09:47:49;23.30;96.50
25360;DHT22;13311;51.386;0.016;2023-08-24T09:52:53;23.40;96.60
25360;DHT22;13311;51.386;0.016;2023-08-24T09:58:00;23.80;96.70
25360;DHT22;13311;51.386;0.016;2023-08-24T10:03:01;24.40;95.60
25360;DHT22;13311;51.386;0.016;2023-08-24T10:08:05;24.80;94.70
25360;DHT22;13311;51.386;0.016;2023-08-24T10:13:14;25.10;93.70
25360;DHT22;13311;51.386;0.016;2023-08-24T10:18:19;25.20;94.20
25360;DHT22;13311;51.386;0.016;2023-08-24T10:23:21;25.30;93.80
25360;DHT22;13311;51.386;0.016;2023-08-24T10:28:24;25.50;93.50
25360;DHT22;13311;51.386;0.016;2023-08-24T10:33:27;25.50;93.80
25360;DHT22;13311;51.386;0.016;2023-08-24T10:38:29;25.60;94.00
25360;DHT22;13311;51.386;0.016;2023-08-24T10:43:33;25.80;94.20
25360;DHT22;13311;51.386;0.016;2023-08-24T11:04:18;27.10;92.20
25360;DHT22;13311;51.386;0.016;2023-08-24T11:09:18;27.30;90.90
25360;DHT22;13311;51.386;0.016;2023-08-24T11:14:20;27.50;90.40
25360;DHT22;13311;51.386;0.016;2023-08-24T11:19:23;27.50;90.40
25360;DHT22;13311;51.386;0.016;2023-08-24T11:24:24;27.50;90.10
25360;DHT22;13311;51.386;0.016;2023-08-24T11:29:25;27.70;85.60
25360;DHT22;13311;51.386;0.016;2023-08-24T11:34:26;27.90;83.30
25360;DHT22;13311;51.386;0.016;2023-08-24T11:39:27;28.10;83.50
25360;DHT22;13311;51.386;0.016;2023-08-24T11:44:49;28.20;82.40
25360;DHT22;13311;51.386;0.016;2023-08-24T11:49:50;28.30;81.00
25360;DHT22;13311;51.386;0.016;2023-08-24T11:54:51;28.50;80.20
25360;DHT22;13311;51.386;0.016;2023-08-24T11:59:52;28.70;79.30
25360;DHT22;13311;51.386;0.016;2023-08-24T12:04:53;28.80;79.10
25360;DHT22;13311;51.386;0.016;2023-08-24T12:09:54;28.80;78.00
25360;DHT22;13311;51.386;0.016;2023-08-24T12:14:56;28.60;78.60
25360;DHT22;13311;51.386;0.016;2023-08-24T12:20:00;28.50;78.40
25360;DHT22;13311;51.386;0.016;2023-08-24T12:25:06;28.40;78.70
25360;DHT22;13311;51.386;0.016;2023-08-24T12:30:07;28.40;78.90
25360;DHT22;13311;51.386;0.016;2023-08-24T12:35:12;28.30;78.80
25360;DHT22;13311;51.386;0.016;2023-08-24T12:40:14;28.30;78.80
25360;DHT22;13311;51.386;0.016;2023-08-24T12:45:16;28.30;78.50
25360;DHT22;13311;51.386;0.016;2023-08-24T12:50:17;28.50;78.30
25360;DHT22;13311;51.386;0.016;2023-08-24T12:55:17;28.50;77.60
25360;DHT22;13311;51.386;0.016;2023-08-24T13:00:18;28.50;77.80
25360;DHT22;13311;51.386;0.016;2023-08-24T13:05:19;28.40;77.20
25360;DHT22;13311;51.386;0.016;2023-08-24T13:10:20;28.30;77.70
25360;DHT22;13311;51.386;0.016;2023-08-24T13:15:21;28.40;78.10
25360;DHT22;13311;51.386;0.016;2023-08-24T13:20:22;28.30;77.40
25360;DHT22;13311;51.386;0.016;2023-08-24T13:25:23;28.20;78.40
25360;DHT22;13311;51.386;0.016;2023-08-24T13:30:23;28.20;78.20
25360;DHT22;13311;51.386;0.016;2023-08-24T13:35:24;28.20;78.60
25360;DHT22;13311;51.386;0.016;2023-08-24T13:40:25;28.10;79.90
25360;DHT22;13311;51.386;0.016;2023-08-24T13:45:25;28.00;79.50
25360;DHT22;13311;51.386;0.016;2023-08-24T13:50:26;28.00;79.50
25360;DHT22;13311;51.386;0.016;2023-08-24T13:55:27;27.90;79.00
25360;DHT22;13311;51.386;0.016;2023-08-24T14:00:28;27.50;78.90
25360;DHT22;13311;51.386;0.016;2023-08-24T14:05:28;27.50;78.80
25360;DHT22;13311;51.386;0.016;2023-08-24T14:10:29;27.40;79.80
25360;DHT22;13311;51.386;0.016;2023-08-24T14:15:30;27.30;81.90
25360;DHT22;13311;51.386;0.016;2023-08-24T14:20:31;27.20;85.50
25360;DHT22;13311;51.386;0.016;2023-08-24T14:25:31;27.00;86.50
25360;DHT22;13311;51.386;0.016;2023-08-24T14:30:32;27.20;84.40
25360;DHT22;13311;51.386;0.016;2023-08-24T14:35:33;27.10;86.90
25360;DHT22;13311;51.386;0.016;2023-08-24T14:40:33;27.00;87.50
25360;DHT22;13311;51.386;0.016;2023-08-24T14:45:34;26.70;87.40
25360;DHT22;13311;51.386;0.016;2023-08-24T14:50:38;26.40;87.90
25360;DHT22;13311;51.386;0.016;2023-08-24T14:55:39;26.30;89.90
25360;DHT22;13311;51.386;0.016;2023-08-24T15:00:39;26.20;90.30
25360;DHT22;13311;51.386;0.016;2023-08-24T15:05:43;26.10;91.00
25360;DHT22;13311;51.386;0.016;2023-08-24T15:10:57;25.90;91.90
25360;DHT22;13311;51.386;0.016;2023-08-24T15:15:58;25.90;92.30
25360;DHT22;13311;51.386;0.016;2023-08-24T15:20:59;25.80;93.10
25360;DHT22;13311;51.386;0.016;2023-08-24T15:26:01;25.70;93.70
25360;DHT22;13311;51.386;0.016;2023-08-24T15:31:01;25.60;93.40
25360;DHT22;13311;51.386;0.016;2023-08-24T15:36:02;25.50;93.10
25360;DHT22;13311;51.386;0.016;2023-08-24T15:41:03;25.60;93.60
25360;DHT22;13311;51.386;0.016;2023-08-24T15:46:04;25.50;93.50
25360;DHT22;13311;51.386;0.016;2023-08-24T15:51:05;25.50;93.40
25360;DHT22;13311;51.386;0.016;2023-08-24T15:56:06;25.40;93.50
25360;DHT22;13311;51.386;0.016;2023-08-24T16:01:07;25.40;93.60
25360;DHT22;13311;51.386;0.016;2023-08-24T16:06:08;25.50;93.90
25360;DHT22;13311;51.386;0.016;2023-08-24T16:11:12;25.50;93.20
25360;DHT22;13311;51.386;0.016;2023-08-24T16:16:13;25.40;93.00
25360;DHT22;13311;51.386;0.016;2023-08-24T16:21:14;25.40;93.00
25360;DHT22;13311;51.386;0.016;2023-08-24T16:26:14;25.30;93.50
25360;DHT22;13311;51.386;0.016;2023-08-24T16:31:16;25.20;93.10
25360;DHT22;13311;51.386;0.016;2023-08-24T16:36:17;25.10;93.50
25360;DHT22;13311;51.386;0.016;2023-08-24T16:41:17;24.90;92.90
25360;DHT22;13311;51.386;0.016;2023-08-24T16:46:19;24.90;93.90
25360;DHT22;13311;51.386;0.016;2023-08-24T16:51:21;24.70;93.60
25360;DHT22;13311;51.386;0.016;2023-08-24T16:56:21;24.60;94.30
25360;DHT22;13311;51.386;0.016;2023-08-24T17:01:22;24.70;95.00
25360;DHT22;13311;51.386;0.016;2023-08-24T17:06:23;24.70;95.00
25360;DHT22;13311;51.386;0.016;2023-08-24T17:11:23;24.80;94.90
25360;DHT22;13311;51.386;0.016;2023-08-24T17:16:24;24.80;94.60
25360;DHT22;13311;51.386;0.016;2023-08-24T17:21:25;25.00;94.90
25360;DHT22;13311;51.386;0.016;2023-08-24T17:26:26;25.20;93.50
25360;DHT22;13311;51.386;0.016;2023-08-24T17:31:26;25.30;93.60
25360;DHT22;13311;51.386;0.016;2023-08-24T17:36:27;25.30;93.60
25360;DHT22;13311;51.386;0.016;2023-08-24T17:41:29;25.20;93.50
25360;DHT22;13311;51.386;0.016;2023-08-24T17:46:33;25.10;93.20
25360;DHT22;13311;51.386;0.016;2023-08-24T17:51:34;24.90;93.30
25360;DHT22;13311;51.386;0.016;2023-08-24T17:56:35;24.90;93.70
25360;DHT22;13311;51.386;0.016;2023-08-24T18:01:36;24.90;93.50
25360;DHT22;13311;51.386;0.016;2023-08-24T18:06:37;24.80;93.20
25360;DHT22;13311;51.386;0.016;2023-08-24T18:11:37;24.70;93.30
25360;DHT22;13311;51.386;0.016;2023-08-24T18:16:38;24.60;93.90
25360;DHT22;13311;51.386;0.016;2023-08-24T18:21:40;24.30;94.30
25360;DHT22;13311;51.386;0.016;2023-08-24T18:26:41;24.20;94.50
25360;DHT22;13311;51.386;0.016;2023-08-24T18:31:42;24.10;94.80
25360;DHT22;13311;51.386;0.016;2023-08-24T18:36:43;23.90;94.90
25360;DHT22;13311;51.386;0.016;2023-08-24T18:41:44;23.80;95.10
25360;DHT22;13311;51.386;0.016;2023-08-24T18:46:44;23.80;95.10
25360;DHT22;13311;51.386;0.016;2023-08-24T18:51:47;23.70;95.00
25360;DHT22;13311;51.386;0.016;2023-08-24T18:56:51;23.60;95.30
25360;DHT22;13311;51.386;0.016;2023-08-24T19:01:52;23.50;95.20
25360;DHT22;13311;51.386;0.016;2023-08-24T19:06:53;23.50;95.30
25360;DHT22;13311;51.386;0.016;2023-08-24T19:11:54;23.40;95.50
25360;DHT22;13311;51.386;0.016;2023-08-24T19:16:55;23.30;95.70
25360;DHT22;13311;51.386;0.016;2023-08-24T19:21:55;23.30;95.50
25360;DHT22;13311;51.386;0.016;2023-08-24T19:26:56;23.30;95.50
25360;DHT22;13311;51.386;0.016;2023-08-24T19:31:57;23.30;95.50
25360;DHT22;13311;51.386;0.016;2023-08-24T19:36:58;23.30;95.60
25360;DHT22;13311;51.386;0.016;2023-08-24T19:41:58;23.30;95.70
25360;DHT22;13311;51.386;0.016;2023-08-24T19:46:59;23.30;95.70
25360;DHT22;13311;51.386;0.016;2023-08-24T19:52:00;23.30;95.70
25360;DHT22;13311;51.386;0.016;2023-08-24T19:57:00;23.30;95.90
25360;DHT22;13311;51.386;0.016;2023-08-24T20:02:02;23.20;96.10
25360;DHT22;13311;51.386;0.016;2023-08-24T20:07:03;23.20;96.00
25360;DHT22;13311;51.386;0.016;2023-08-24T20:12:05;23.10;95.90
25360;DHT22;13311;51.386;0.016;2023-08-24T20:17:06;23.10;96.30
25360;DHT22;13311;51.386;0.016;2023-08-24T20:22:07;23.10;96.00
25360;DHT22;13311;51.386;0.016;2023-08-24T20:27:08;23.10;96.00
25360;DHT22;13311;51.386;0.016;2023-08-24T20:32:09;23.00;96.00
25360;DHT22;13311;51.386;0.016;2023-08-24T20:37:09;23.00;95.80
25360;DHT22;13311;51.386;0.016;2023-08-24T20:42:21;22.90;95.80
25360;DHT22;13311;51.386;0.016;2023-08-24T20:47:24;22.90;95.80
25360;DHT22;13311;51.386;0.016;2023-08-24T20:52:25;22.80;95.90
25360;DHT22;13311;51.386;0.016;2023-08-24T20:57:26;22.80;96.00
25360;DHT22;13311;51.386;0.016;2023-08-24T21:02:27;22.70;95.90
25360;DHT22;13311;51.386;0.016;2023-08-24T21:07:28;22.70;96.00
25360;DHT22;13311;51.386;0.016;2023-08-24T21:12:30;22.60;96.20
25360;DHT22;13311;51.386;0.016;2023-08-24T21:17:31;22.60;96.30
25360;DHT22;13311;51.386;0.016;2023-08-24T21:22:32;22.60;96.30
25360;DHT22;13311;51.386;0.016;2023-08-24T21:27:33;22.50;96.20
25360;DHT22;13311;51.386;0.016;2023-08-24T21:32:34;22.50;96.10
25360;DHT22;13311;51.386;0.016;2023-08-24T21:37:35;22.40;96.10
25360;DHT22;13311;51.386;0.016;2023-08-24T21:42:36;22.40;96.20
25360;DHT22;13311;51.386;0.016;2023-08-24T21:47:37;22.40;96.30
25360;DHT22;13311;51.386;0.016;2023-08-24T21:52:37;22.30;96.10
25360;DHT22;13311;51.386;0.016;2023-08-24T21:57:38;22.30;96.20
25360;DHT22;13311;51.386;0.016;2023-08-24T22:02:41;22.30;96.00
25360;DHT22;13311;51.386;0.016;2023-08-24T22:07:42;22.30;96.10
25360;DHT22;13311;51.386;0.016;2023-08-24T22:12:43;22.20;96.00
25360;DHT22;13311;51.386;0.016;2023-08-24T22:17:43;22.10;96.00
25360;DHT22;13311;51.386;0.016;2023-08-24T22:22:44;22.10;96.10
25360;DHT22;13311;51.386;0.016;2023-08-24T22:27:45;22.10;96.20
25360;DHT22;13311;51.386;0.016;2023-08-24T22:32:46;22.00;96.20
25360;DHT22;13311;51.386;0.016;2023-08-24T22:37:47;22.10;96.40
25360;DHT22;13311;51.386;0.016;2023-08-24T22:42:49;22.00;96.30
25360;DHT22;13311;51.386;0.016;2023-08-24T22:47:50;22.10;96.10
25360;DHT22;13311;51.386;0.016;2023-08-24T22:52:51;22.00;96.00
25360;DHT22;13311;51.386;0.016;2023-08-24T22:57:52;22.00;96.00
25360;DHT22;13311;51.386;0.016;2023-08-24T23:02:52;21.90;95.80
25360;DHT22;13311;51.386;0.016;2023-08-24T23:07:53;21.90;95.70
25360;DHT22;13311;51.386;0.016;2023-08-24T23:12:54;21.80;95.90
25360;DHT22;13311;51.386;0.016;2023-08-24T23:17:55;21.70;95.90
25360;DHT22;13311;51.386;0.016;2023-08-24T23:22:56;21.70;96.00
25360;DHT22;13311;51.386;0.016;2023-08-24T23:27:56;21.60;96.00
25360;DHT22;13311;51.386;0.016;2023-08-24T23:32:57;21.50;96.10
25360;DHT22;13311;51.386;0.016;2023-08-24T23:37:58;21.50;96.10
25360;DHT22;13311;51.386;0.016;2023-08-24T23:42:58;21.50;96.20
25360;DHT22;13311;51.386;0.016;2023-08-24T23:47:59;21.40;96.00
25360;DHT22;13311;51.386;0.016;2023-08-24T23:53:00;21.30;95.90
25360;DHT22;13311;51.386;0.016;2023-08-24T23:58:00;21.30;96.30
